Flight Track Log - Related Links

Times and Time Zones

All times are in EDT time to prevent confusion due to time zone crossing. See the BOE1 flight status page for this flight to view local times or setup timezone preferences in your user account.

Time Position Orientation Groundspeed Altitude Reporting Facility
EDT Latitude Longitude Course Direction KTS MPH feet Rate Location/Type
Fri 02:02:53 PM 47.5469 -122.3208 330° Northwest 176 203 1,700  Level Seattle Center
Fri 02:03:42 PM 47.5892 -122.3567 330° Northwest 239 275 3,100 923 Climbing Seattle Center
Fri 02:04:37 PM 47.6303 -122.4228 313° West 262 302 3,300 1,200 Climbing Seattle Center
Fri 02:05:02 PM 47.6419 -122.4606 295° West 260 299 4,700 3,907 Climbing Seattle Center
Fri 02:06:03 PM 47.6758 -122.5669 295° West 266 306 8,900 3,492 Climbing Seattle Center
Fri 02:07:04 PM 47.6981 -122.6839 286° West 299 344 11,800 3,000 Climbing Seattle Center
Fri 02:08:05 PM 47.7269 -122.8125 289° West 325 374 15,000 2,311 Climbing Seattle Center
Fri 02:09:06 PM 47.7553 -122.9342 289° West 330 380 16,500 1,672 Climbing Seattle Center
Fri 02:10:07 PM 47.7861 -123.0661 289° West 340 391 18,400 2,213 Climbing Seattle Center
Fri 02:11:08 PM 47.8172 -123.2008 289° West 348 400 21,000 2,852 Climbing Seattle Center
Fri 02:12:09 PM 47.8481 -123.3433 288° West 359 413 24,200 3,000 Climbing Seattle Center
Fri 02:13:10 PM 47.8919 -123.5144 291° West 370 426 27,100 2,508 Climbing Seattle Center
Fri 02:14:11 PM 47.9456 -123.6556 300° West 389 448 29,300 2,066 Climbing Seattle Center
Fri 02:15:12 PM 47.9981 -123.7986 299° West 394 453 31,300 1,918 Climbing Seattle Center
Fri 02:16:13 PM 48.0525 -123.9447 299° West 403 464 33,200 2,146 Climbing Seattle Center
Fri 02:17:15 PM 48.1058 -124.0917 299° West 403 464 35,700 1,854 Climbing Seattle Center
Fri 02:18:16 PM 48.1567 -124.2333 298° West 391 450 37,000 1,033 Climbing Seattle Center
Fri 02:19:17 PM 48.2119 -124.3806 299° West 404 465 37,800 1,328 Climbing Seattle Center
Fri 02:20:18 PM 48.2717 -124.5264 302° West 411 473 39,700 1,475 Climbing Seattle Center
Fri 02:21:19 PM 48.3111 -124.6814 291° West 407 468 40,800 590 Climbing Seattle Center
Fri 02:22:20 PM 48.2208 -124.8025 222° Southwest 454 522 40,900 98 Climbing Seattle Center
Fri 02:23:21 PM 48.1053 -124.7456 162° South 481 554 41,000  Climbing Seattle Center
Fri 02:24:22 PM 48.0564 -124.5675 112° Southeast 472 543 40,900 -49 Descending Seattle Center
Fri 02:25:23 PM 48.0250 -124.3431 102° East 466 536 40,900  Level Seattle Center
Fri 02:26:24 PM 47.9942 -124.1544 104° East 470 541 40,900 49 Level Seattle Center
Fri 02:27:26 PM 47.9633 -123.9656 104° East 471 542 41,000 49 Climbing Seattle Center
Fri 02:28:27 PM 47.9378 -123.7792 101° East 465 535 41,000  Level Seattle Center
Fri 02:29:28 PM 47.9036 -123.5783 104° East 477 549 41,000  Level Seattle Center
Fri 02:30:29 PM 47.8717 -123.3822 104° East 491 565 41,000  Level Seattle Center
Fri 02:31:30 PM 47.8397 -123.1864 104° East 492 566 41,000  Level Seattle Center
Fri 02:32:31 PM 47.8092 -122.9969 103° East 480 552 41,000  Level Seattle Center
Fri 02:33:32 PM 47.7775 -122.8067 104° East 478 550 41,000  Level Seattle Center
Fri 02:34:33 PM 47.7439 -122.6167 105° East 479 551 41,000 -49 Level Seattle Center
Fri 02:35:34 PM 47.7039 -122.3950 105° East 479 551 40,900  Descending Seattle Center
Fri 02:36:35 PM 47.6797 -122.2231 102° East 478 550 41,000 49 Climbing Seattle Center
Fri 02:37:36 PM 47.6536 -122.0328 101° East 475 547 41,000  Level Seattle Center
Fri 02:38:37 PM 47.6275 -121.8428 101° East 474 545 41,000  Level Seattle Center
Fri 02:39:39 PM 47.6006 -121.6544 102° East 473 544 41,000  Level Seattle Center
Fri 02:40:40 PM 47.5600 -121.4322 105° East 471 542 41,000  Level Seattle Center
Fri 02:41:41 PM 47.5256 -121.2478 105° East 470 541 41,000  Level Seattle Center
Fri 02:42:42 PM 47.4894 -121.0653 106° East 466 536 41,000  Level Seattle Center
Fri 02:43:43 PM 47.4544 -120.8817 106° East 467 537 41,000  Level Seattle Center
Fri 02:44:44 PM 47.4194 -120.7028 106° East 465 535 41,000 -49 Level Seattle Center
Fri 02:45:45 PM 47.3836 -120.5217 106° East 462 532 40,900 -49 Descending Seattle Center
Fri 02:46:46 PM 47.3469 -120.3397 107° East 463 533 40,900  Level Seattle Center
Fri 02:47:47 PM 47.3106 -120.1589 106° East 463 533 40,900 -590 Level Seattle Center
Fri 02:48:48 PM 47.2669 -119.9469 107° East 455 524 39,700 -1,475 Descending Seattle Center
Fri 02:49:49 PM 47.2333 -119.7800 106° East 431 496 37,900 -1,820 Descending Seattle Center
Fri 02:50:50 PM 47.1992 -119.6158 107° East 423 487 36,000 -1,525 Descending Seattle Center
Fri 02:51:51 PM 47.1656 -119.4622 108° East 403 464 34,800 -2,213 Descending Seattle Center
Fri 02:52:52 PM 47.1369 -119.3181 106° East 378 435 31,500 -3,934 Descending Seattle Center
Fri 02:53:53 PM 47.1053 -119.1569 106° East 404 465 26,800 -3,492 Descending Seattle Center
Fri 02:54:54 PM 47.0678 -118.9900 108° East 421 484 24,400 -2,557 Descending Seattle Center
Fri 02:55:55 PM 47.0322 -118.8311 108° East 421 484 21,600 -2,508 Descending Seattle Center
Fri 02:56:56 PM 46.9975 -118.6761 108° East 412 474 19,300 -2,537 Descending Seattle Center
Fri 02:57:58 PM 46.9683 -118.5297 106° East 389 448 16,400 -2,146 Descending Seattle Center
Fri 02:58:59 PM 46.9369 -118.3844 108° East 376 433 14,900 -738 Descending Seattle Center
Fri 03:00:00 PM 46.9003 -118.2208 108° East 355 409 14,900 49 Level Seattle Center
Fri 03:01:01 PM 46.8733 -118.0939 107° East 332 382 15,000  Climbing Seattle Center
Fri 03:02:02 PM 46.8456 -117.9742 109° East 317 365 14,900  Descending Seattle Center
Fri 03:03:03 PM 46.8144 -117.8569 111° Southeast 314 361 15,000  Climbing Seattle Center
Fri 03:04:04 PM 46.7950 -117.7344 103° East 313 360 14,900 -49 Descending Seattle Center
Fri 03:05:05 PM 46.7689 -117.6156 108° East 315 362 14,900 49 Level Seattle Center
Fri 03:06:06 PM 46.7331 -117.5011 115° Southeast 312 359 15,000 49 Climbing Seattle Center
Fri 03:07:07 PM 46.6653 -117.4244 142° Southeast 342 394 15,000 -49 Level Seattle Center
Fri 03:08:08 PM 46.5978 -117.5097 221° Southwest 330 380 14,900 -49 Descending Seattle Center
Fri 03:09:09 PM 46.5358 -117.6050 227° Southwest 326 375 14,900 49 Level Seattle Center
Fri 03:10:10 PM 46.4736 -117.6958 225° Southwest 259 298 15,000 49 Climbing Seattle Center
Fri 03:11:11 PM 46.4292 -117.7658 227° Southwest 236 272 15,000  Level Seattle Center
Fri 03:12:12 PM 46.3856 -117.8328 227° Southwest 230 265 15,000  Level Seattle Center
Fri 03:13:13 PM 46.3464 -117.8892 225° Southwest 204 235 15,000  Level Seattle Center
Fri 03:14:14 PM 46.3092 -117.9442 226° Southwest 194 223 15,000  Level Seattle Center
Fri 03:15:15 PM 46.2728 -117.9994 226° Southwest 190 219 15,000  Level Seattle Center
Fri 03:16:16 PM 46.2375 -118.0511 225° Southwest 182 209 15,000  Level Seattle Center
Fri 03:17:17 PM 46.2011 -118.1028 225° Southwest 183 211 15,000 -49 Level Seattle Center
Fri 03:18:18 PM 46.1608 -118.1672 228° Southwest 209 241 14,900 -49 Descending Seattle Center
Fri 03:19:19 PM 46.1125 -118.2422 227° Southwest 249 287 14,900 49 Level Seattle Center
Fri 03:20:21 PM 46.0589 -118.3281 228° Southwest 281 323 15,000 49 Climbing Seattle Center
Fri 03:21:22 PM 46.0125 -118.4036 229° Southwest 260 299 15,000 -49 Level Seattle Center
Fri 03:22:23 PM 45.9669 -118.4789 229° Southwest 216 249 14,900 -49 Descending Seattle Center
Fri 03:23:24 PM 45.9947 -118.5089 323° Northwest 146 168 14,900  Level Seattle Center
Fri 03:24:25 PM 46.0244 -118.5269 337° Northwest 117 135 14,900 49 Level Seattle Center
Fri 03:25:26 PM 46.0594 -118.5500 335° Northwest 127 146 15,000  Climbing Seattle Center
Fri 03:26:27 PM 46.1014 -118.5769 336° Northwest 151 174 14,900  Descending Seattle Center
Fri 03:27:28 PM 46.1500 -118.6097 335° Northwest 177 204 15,000  Climbing Seattle Center
Fri 03:28:29 PM 46.1961 -118.6453 332° Northwest 185 213 14,900 -689 Descending Seattle Center
Fri 03:29:30 PM 46.2361 -118.6639 342° North 174 200 13,600 -1,672 Descending Seattle Center
Fri 03:30:31 PM 46.2744 -118.6536 10° North 161 185 11,500 -1,328 Descending Seattle Center
Fri 03:31:32 PM 46.3194 -118.6858 334° Northwest 179 206 10,900 -295 Descending Seattle Center
Fri 03:32:33 PM 46.3728 -118.7264 332° Northwest 221 254 10,900 49 Level Seattle Center
Fri 03:33:35 PM 46.4453 -118.7792 333° Northwest 247 284 11,000  Climbing Seattle Center
Fri 03:34:36 PM 46.5125 -118.8272 334° Northwest 267 307 10,900 -49 Descending Seattle Center
Fri 03:35:37 PM 46.5789 -118.8772 333° Northwest 269 310 10,900 -98 Level Seattle Center
Fri 03:36:38 PM 46.6394 -118.9450 322° Northwest 272 313 10,700 -1,033 Descending Seattle Center
Fri 03:37:39 PM 46.7017 -119.0083 325° Northwest 274 315 8,800 -1,672 Descending Seattle Center
Fri 03:38:40 PM 46.7692 -119.0731 327° Northwest 274 315 7,300 -1,131 Descending Seattle Center
Fri 03:39:41 PM 46.8233 -119.1247 327° Northwest 255 293 6,500 -639 Descending Seattle Center
Fri 03:40:42 PM 46.8750 -119.1622 334° Northwest 211 243 6,000 -780 Descending Seattle Center
Fri 03:41:44 PM 46.9236 -119.1836 343° North 186 214 4,900 -1,024 Descending Seattle Center
Fri 03:42:45 PM 46.9722 -119.2069 342° North 184 212 3,900 -836 Descending Seattle Center
Fri 03:43:46 PM 47.0172 -119.2283 342° North 174 200 3,200 -492 Descending Seattle Center
Fri 03:44:47 PM 47.0597 -119.2483 342° North 163 188 2,900 -197 Descending Seattle Center
Fri 03:45:48 PM 47.1047 -119.2694 342° North 145 167 2,800 -98 Descending Seattle Center

Login

Don't have an account? Register now (free) for customized features, flight alerts, and more!